Time;durP1;ratioP1;P1;durP2;ratioP2;P2;SDS_P1;SDS_P2;PMS_P1;PMS_P2;Temp;Humidity;BMP_temperature;BMP_pressure;BME280_temperature;BME280_humidity;BME280_pressure;Samples;Min_cycle;Max_cycle;Signal;HPM_P1;HPM_P2
2022/04/26 03:38:16;;;;;;;9.77;5.25;;;;;;;;;;5042295;28;20065;-65
2022/04/26 03:40:42;;;;;;;11.88;5.75;;;;;;;;;;5034667;28;20049;-65
2022/04/26 03:43:08;;;;;;;15.27;5.75;;;;;;;;;;5037879;28;20096;-65
2022/04/26 03:45:34;;;;;;;20.67;6.65;;;;;;;;;;5039148;28;20041;-65
2022/04/26 03:48:01;;;;;;;21.90;6.15;;;;;;;;;;5036169;28;20515;-65
2022/04/26 03:50:27;;;;;;;22.65;6.47;;;;;;;;;;5043310;28;20512;-66
2022/04/26 03:52:53;;;;;;;18.73;5.95;;;;;;;;;;5042450;28;21671;-65
2022/04/26 03:55:20;;;;;;;16.20;5.72;;;;;;;;;;5042486;28;20070;-65
2022/04/26 03:57:47;;;;;;;14.88;6.95;;;;;;;;;;5040439;28;20456;-65
2022/04/26 04:00:13;;;;;;;16.85;6.53;;;;;;;;;;5042887;28;20477;-65
2022/04/26 04:02:39;;;;;;;18.25;6.40;;;;;;;;;;5042440;28;20531;-65
2022/04/26 04:05:06;;;;;;;15.65;5.85;;;;;;;;;;5046237;28;20048;-65
2022/04/26 04:07:32;;;;;;;17.92;6.93;;;;;;;;;;5044034;28;20480;-65
2022/04/26 04:09:58;;;;;;;18.75;7.65;;;;;;;;;;5043708;28;20102;-65
2022/04/26 04:12:24;;;;;;;16.27;6.07;;;;;;;;;;5046485;28;20056;-65
2022/04/26 04:14:50;;;;;;;14.60;5.78;;;;;;;;;;5046364;28;20106;-65
2022/04/26 04:17:16;;;;;;;16.58;6.05;;;;;;;;;;5046639;28;20396;-65
2022/04/26 04:19:42;;;;;;;13.38;5.80;;;;;;;;;;5047985;28;20369;-65
2022/04/26 04:22:09;;;;;;;13.27;5.00;;;;;;;;;;5045101;28;20037;-65
2022/04/26 04:24:35;;;;;;;14.70;6.25;;;;;;;;;;5043403;28;20033;-65
2022/04/26 04:27:01;;;;;;;11.00;4.90;;;;;;;;;;5044007;28;20051;-65
2022/04/26 04:29:27;;;;;;;17.10;5.85;;;;;;;;;;5043364;28;20052;-65
2022/04/26 04:31:53;;;;;;;15.23;5.18;;;;;;;;;;5041882;28;20037;-66
2022/04/26 04:34:19;;;;;;;11.52;4.72;;;;;;;;;;5046052;28;20140;-65
2022/04/26 04:36:45;;;;;;;11.98;5.05;;;;;;;;;;5059579;28;21803;-65
2022/04/26 04:39:19;;;;;;;24.83;4.90;;;;;;;;;;5042653;28;20049;-65
2022/04/26 04:41:45;;;;;;;15.15;5.03;;;;;;;;;;5044867;28;20124;-65
2022/04/26 04:44:11;;;;;;;19.73;6.13;;;;;;;;;;5039312;28;20045;-65
2022/04/26 04:46:37;;;;;;;17.40;5.80;;;;;;;;;;5045172;28;20502;-65
2022/04/26 04:49:03;;;;;;;11.38;4.75;;;;;;;;;;5042043;28;20037;-65
2022/04/26 04:51:30;;;;;;;18.85;6.10;;;;;;;;;;5043764;28;20095;-66
2022/04/26 04:53:56;;;;;;;15.65;6.03;;;;;;;;;;5044307;28;20396;-65
2022/04/26 04:56:26;;;;;;;11.93;5.80;;;;;;;;;;5044662;28;20144;-65
2022/04/26 04:58:52;;;;;;;11.75;6.32;;;;;;;;;;5040411;28;20041;-65
2022/04/26 05:01:19;;;;;;;14.30;5.50;;;;;;;;;;5043317;28;20053;-65
2022/04/26 05:03:45;;;;;;;14.25;6.43;;;;;;;;;;5022318;28;20037;-65
2022/04/26 05:06:14;;;;;;;17.92;5.88;;;;;;;;;;5045830;28;20391;-65
2022/04/26 05:08:40;;;;;;;14.10;5.75;;;;;;;;;;5039776;28;20087;-65
2022/04/26 05:11:06;;;;;;;13.80;6.20;;;;;;;;;;5047085;28;20043;-65
2022/04/26 05:13:33;;;;;;;17.92;6.40;;;;;;;;;;5041211;28;20176;-65
2022/04/26 05:15:59;;;;;;;17.25;6.43;;;;;;;;;;5042971;28;20511;-66
2022/04/26 05:18:25;;;;;;;15.18;6.30;;;;;;;;;;5044601;28;20184;-64
2022/04/26 05:20:51;;;;;;;16.55;6.20;;;;;;;;;;5043755;28;20045;-65
2022/04/26 05:26:02;;;;;;;14.43;6.15;;;;;;;;;;5038385;28;20049;-65
2022/04/26 05:28:28;;;;;;;13.82;6.63;;;;;;;;;;5033246;28;20046;-65
2022/04/26 05:30:54;;;;;;;13.40;6.47;;;;;;;;;;5034682;28;20049;-65
2022/04/26 05:33:21;;;;;;;22.23;6.03;;;;;;;;;;5034693;28;20171;-65
2022/04/26 05:35:48;;;;;;;17.92;6.63;;;;;;;;;;5042023;28;20044;-65
2022/04/26 05:38:15;;;;;;;17.35;6.47;;;;;;;;;;5055694;28;20066;-65
2022/04/26 05:40:41;;;;;;;14.77;5.72;;;;;;;;;;5061464;28;20377;-66
2022/04/26 05:43:08;;;;;;;19.70;7.25;;;;;;;;;;5045223;28;20051;-65
2022/04/26 05:45:34;;;;;;;15.80;6.85;;;;;;;;;;5062928;28;20048;-65
2022/04/26 05:48:00;;;;;;;15.32;7.22;;;;;;;;;;5047497;28;20048;-65
2022/04/26 05:50:26;;;;;;;18.20;8.40;;;;;;;;;;5064144;28;20373;-65
2022/04/26 05:52:53;;;;;;;16.17;7.40;;;;;;;;;;5067276;28;20046;-65
2022/04/26 05:55:19;;;;;;;21.92;8.05;;;;;;;;;;5066754;28;20127;-65
2022/04/26 05:57:45;;;;;;;18.42;8.98;;;;;;;;;;5044072;28;20036;-65
2022/04/26 06:00:13;;;;;;;15.05;8.15;;;;;;;;;;5050616;28;20044;-65
2022/04/26 06:02:40;;;;;;;15.57;7.97;;;;;;;;;;5062574;28;21118;-65
2022/04/26 06:05:06;;;;;;;16.38;8.63;;;;;;;;;;5047354;28;20060;-65
2022/04/26 06:07:32;;;;;;;13.73;7.20;;;;;;;;;;5066983;28;20047;-65
2022/04/26 06:09:59;;;;;;;23.10;8.10;;;;;;;;;;5068124;28;20459;-65
2022/04/26 06:12:26;;;;;;;19.15;8.90;;;;;;;;;;5045400;28;20405;-66
2022/04/26 06:14:54;;;;;;;20.67;7.35;;;;;;;;;;5067538;28;20488;-66
2022/04/26 06:17:20;;;;;;;10.82;6.72;;;;;;;;;;5059863;28;20041;-66
2022/04/26 06:19:46;;;;;;;13.32;5.25;;;;;;;;;;5050970;28;20072;-65
2022/04/26 06:22:12;;;;;;;10.73;4.80;;;;;;;;;;5061894;28;20468;-65
2022/04/26 06:24:39;;;;;;;12.70;5.05;;;;;;;;;;5063116;28;20040;-66
2022/04/26 06:27:05;;;;;;;12.25;4.90;;;;;;;;;;5061986;28;20033;-65
2022/04/26 06:29:31;;;;;;;16.95;4.95;;;;;;;;;;5062745;28;20052;-66
2022/04/26 06:31:57;;;;;;;12.45;5.10;;;;;;;;;;5059928;28;20805;-65
2022/04/26 06:34:24;;;;;;;9.65;4.70;;;;;;;;;;5067277;28;20110;-65
2022/04/26 06:36:50;;;;;;;11.57;5.07;;;;;;;;;;5047616;28;20060;-65
2022/04/26 06:39:16;;;;;;;11.45;4.10;;;;;;;;;;5069859;28;20040;-65
2022/04/26 06:41:43;;;;;;;13.65;4.25;;;;;;;;;;5068299;28;20463;-65
2022/04/26 06:44:09;;;;;;;12.57;4.68;;;;;;;;;;5067068;28;20048;-65
2022/04/26 06:46:36;;;;;;;16.42;5.07;;;;;;;;;;5069306;28;20044;-65
2022/04/26 06:49:03;;;;;;;14.15;4.90;;;;;;;;;;5068609;28;20045;-65
2022/04/26 06:51:32;;;;;;;8.40;4.35;;;;;;;;;;5067410;28;20094;-65
2022/04/26 06:53:58;;;;;;;11.32;4.05;;;;;;;;;;5062970;28;20115;-65
2022/04/26 06:56:24;;;;;;;15.23;5.07;;;;;;;;;;5050746;28;20080;-66
2022/04/26 06:58:50;;;;;;;10.75;3.05;;;;;;;;;;5048650;28;20051;-65
2022/04/26 07:01:17;;;;;;;10.57;3.33;;;;;;;;;;5066664;28;20090;-65
2022/04/26 07:03:43;;;;;;;13.23;3.70;;;;;;;;;;5051105;28;20467;-66
2022/04/26 07:06:09;;;;;;;11.18;3.33;;;;;;;;;;5067329;28;20036;-66
2022/04/26 07:08:35;;;;;;;10.65;3.42;;;;;;;;;;5066197;28;20041;-66
2022/04/26 07:11:01;;;;;;;7.07;3.00;;;;;;;;;;5047082;28;20101;-66
2022/04/26 07:13:27;;;;;;;9.98;3.13;;;;;;;;;;5064868;28;20052;-65
2022/04/26 07:15:54;;;;;;;10.90;2.90;;;;;;;;;;5063240;28;20044;-66
2022/04/26 07:18:20;;;;;;;8.13;2.67;;;;;;;;;;5059617;28;20072;-66
2022/04/26 07:20:46;;;;;;;7.68;3.30;;;;;;;;;;5041983;28;20041;-66
2022/04/26 07:23:12;;;;;;;11.60;5.03;;;;;;;;;;5045194;28;20050;-66
2022/04/26 07:25:39;;;;;;;7.80;3.30;;;;;;;;;;5061215;28;20160;-66
2022/04/26 07:28:05;;;;;;;11.93;2.83;;;;;;;;;;5045336;28;20079;-66
2022/04/26 07:30:35;;;;;;;10.00;3.42;;;;;;;;;;5044167;28;20094;-67
2022/04/26 07:35:47;;;;;;;11.85;3.53;;;;;;;;;;5046330;28;20060;-66
2022/04/26 07:38:13;;;;;;;11.15;3.65;;;;;;;;;;5047677;28;20072;-66
2022/04/26 07:40:39;;;;;;;9.43;3.15;;;;;;;;;;5051290;28;20072;-66
2022/04/26 07:43:06;;;;;;;6.15;2.40;;;;;;;;;;5051652;28;20120;-66
2022/04/26 07:45:32;;;;;;;11.75;2.85;;;;;;;;;;5050556;28;20071;-66
2022/04/26 07:47:59;;;;;;;6.45;2.25;;;;;;;;;;5046122;28;20063;-65
2022/04/26 07:50:26;;;;;;;7.55;2.47;;;;;;;;;;5049010;28;20433;-66
2022/04/26 07:52:52;;;;;;;7.03;2.80;;;;;;;;;;5048946;28;20410;-66
2022/04/26 07:55:18;;;;;;;9.30;2.53;;;;;;;;;;5042276;28;20132;-65
2022/04/26 07:57:44;;;;;;;6.65;2.47;;;;;;;;;;5046126;28;20515;-66
2022/04/26 08:00:11;;;;;;;7.38;2.67;;;;;;;;;;5039146;28;20044;-66
2022/04/26 08:02:37;;;;;;;9.23;2.97;;;;;;;;;;5047715;28;20095;-66
2022/04/26 08:05:03;;;;;;;10.23;2.53;;;;;;;;;;5046213;28;20075;-66
2022/04/26 08:07:29;;;;;;;6.75;3.05;;;;;;;;;;5040844;28;20054;-66
2022/04/26 08:09:56;;;;;;;6.80;2.47;;;;;;;;;;5044585;28;20136;-66
2022/04/26 08:12:22;;;;;;;9.50;3.20;;;;;;;;;;5044754;28;20104;-66
2022/04/26 08:14:48;;;;;;;8.82;2.95;;;;;;;;;;5044793;28;20108;-66
2022/04/26 08:17:15;;;;;;;9.52;2.88;;;;;;;;;;5041820;28;20045;-66
2022/04/26 08:19:42;;;;;;;7.93;3.10;;;;;;;;;;5043753;28;20477;-66
2022/04/26 08:22:09;;;;;;;11.10;3.47;;;;;;;;;;5043415;28;20041;-66
2022/04/26 08:27:25;;;;;;;8.13;3.28;;;;;;;;;;5042441;28;20123;-66
2022/04/26 08:29:51;;;;;;;7.97;2.75;;;;;;;;;;5045457;28;20052;-66
2022/04/26 08:32:17;;;;;;;8.93;2.90;;;;;;;;;;5041275;28;20052;-66
2022/04/26 08:34:44;;;;;;;8.18;3.28;;;;;;;;;;5044540;28;20048;-66
2022/04/26 08:37:10;;;;;;;11.50;2.80;;;;;;;;;;5046855;28;20128;-66
2022/04/26 08:39:36;;;;;;;7.50;2.63;;;;;;;;;;5064443;28;20056;-66
2022/04/26 08:42:03;;;;;;;8.65;2.85;;;;;;;;;;5049065;28;20491;-66
2022/04/26 08:44:30;;;;;;;7.15;2.53;;;;;;;;;;5047383;28;20098;-66
2022/04/26 08:52:26;;;;;;;11.13;3.65;;;;;;;;;;5064245;28;20041;-66
2022/04/26 08:54:53;;;;;;;8.23;2.65;;;;;;;;;;5064067;28;20159;-66
2022/04/26 08:57:19;;;;;;;7.63;2.58;;;;;;;;;;5062636;28;20435;-66
2022/04/26 08:59:47;;;;;;;5.28;2.55;;;;;;;;;;5064382;28;20120;-66
2022/04/26 09:02:16;;;;;;;7.60;2.60;;;;;;;;;;5063659;28;20059;-66
2022/04/26 09:04:43;;;;;;;5.75;2.60;;;;;;;;;;5044573;28;20185;-66
2022/04/26 09:07:11;;;;;;;9.57;2.70;;;;;;;;;;5030562;28;20059;-66
2022/04/26 09:09:39;;;;;;;8.50;2.72;;;;;;;;;;5066096;28;20109;-66
2022/04/26 09:12:10;;;;;;;6.85;2.75;;;;;;;;;;5048855;28;20048;-66
2022/04/26 09:14:39;;;;;;;7.75;3.13;;;;;;;;;;5063246;28;20527;-66
2022/04/26 09:17:09;;;;;;;8.15;2.60;;;;;;;;;;5064892;28;20051;-66
2022/04/26 09:19:49;;;;;;;12.25;2.47;;;;;;;;;;5061927;28;20092;-67
2022/04/26 09:22:17;;;;;;;8.23;2.50;;;;;;;;;;5061381;28;20524;-66
2022/04/26 09:24:55;;;;;;;7.57;2.83;;;;;;;;;;5064685;28;20094;-66
2022/04/26 09:27:22;;;;;;;9.20;2.88;;;;;;;;;;5043840;28;20076;-66
2022/04/26 09:29:48;;;;;;;10.25;3.10;;;;;;;;;;5062802;28;20527;-66
2022/04/26 09:32:14;;;;;;;6.10;2.55;;;;;;;;;;5063775;28;20181;-66
2022/04/26 09:34:40;;;;;;;9.73;2.70;;;;;;;;;;5064067;28;20037;-66
2022/04/26 09:37:07;;;;;;;7.13;2.47;;;;;;;;;;5062342;28;20140;-67
2022/04/26 09:39:33;;;;;;;12.02;2.78;;;;;;;;;;5061888;28;20088;-66
2022/04/26 09:41:59;;;;;;;7.45;2.70;;;;;;;;;;5043528;28;20566;-66
2022/04/26 09:44:35;;;;;;;7.03;2.47;;;;;;;;;;5062962;28;20037;-66
2022/04/26 09:47:02;;;;;;;7.15;2.30;;;;;;;;;;5061873;28;20108;-67
2022/04/26 09:49:35;;;;;;;8.20;2.33;;;;;;;;;;5064904;28;20056;-67
2022/04/26 09:52:01;;;;;;;7.07;2.78;;;;;;;;;;5047047;28;20045;-67
2022/04/26 09:54:29;;;;;;;5.40;2.10;;;;;;;;;;5062166;28;20047;-67
2022/04/26 09:56:55;;;;;;;6.28;2.50;;;;;;;;;;5061177;28;20033;-67
2022/04/26 09:59:27;;;;;;;8.65;2.90;;;;;;;;;;5063623;28;20039;-67
2022/04/26 10:01:56;;;;;;;5.97;2.70;;;;;;;;;;5045899;28;21203;-67
2022/04/26 10:04:23;;;;;;;8.68;2.75;;;;;;;;;;5045000;28;20052;-67
2022/04/26 10:06:51;;;;;;;6.45;2.25;;;;;;;;;;5043796;28;20052;-67
2022/04/26 10:09:18;;;;;;;5.35;2.28;;;;;;;;;;5063373;28;20071;-67
2022/04/26 10:11:45;;;;;;;6.82;2.40;;;;;;;;;;5061981;28;20353;-67
2022/04/26 10:14:12;;;;;;;8.55;2.67;;;;;;;;;;5060378;28;20496;-67
2022/04/26 10:16:39;;;;;;;10.10;2.60;;;;;;;;;;5060581;28;20048;-67
2022/04/26 10:19:07;;;;;;;5.93;1.95;;;;;;;;;;5042171;28;20044;-67
2022/04/26 10:21:38;;;;;;;7.90;2.88;;;;;;;;;;5061175;28;20053;-67
2022/04/26 10:24:16;;;;;;;5.25;2.10;;;;;;;;;;5062101;28;20102;-67
2022/04/26 10:26:43;;;;;;;7.78;2.15;;;;;;;;;;5061954;28;20080;-67
2022/04/26 10:29:09;;;;;;;10.27;2.95;;;;;;;;;;5044006;28;20048;-67
2022/04/26 10:31:35;;;;;;;8.88;2.45;;;;;;;;;;5048294;28;20124;-67
2022/04/26 10:34:16;;;;;;;6.32;2.38;;;;;;;;;;5044359;28;20036;-67
2022/04/26 10:36:45;;;;;;;7.47;2.75;;;;;;;;;;5045867;28;20044;-67
2022/04/26 10:39:12;;;;;;;8.50;2.13;;;;;;;;;;5061023;28;20072;-67
2022/04/26 10:41:40;;;;;;;4.78;2.45;;;;;;;;;;5026366;28;20045;-67
2022/04/26 10:44:21;;;;;;;11.48;3.25;;;;;;;;;;5043885;28;20056;-67
2022/04/26 10:47:09;;;;;;;6.68;2.60;;;;;;;;;;5061446;28;20068;-67
2022/04/26 10:49:35;;;;;;;7.45;2.60;;;;;;;;;;5044193;28;20086;-67
2022/04/26 10:52:13;;;;;;;7.13;2.95;;;;;;;;;;5041836;28;20413;-67
2022/04/26 10:54:47;;;;;;;7.63;2.67;;;;;;;;;;5047083;28;20048;-67
2022/04/26 10:57:14;;;;;;;10.00;2.78;;;;;;;;;;5042418;28;20155;-67
2022/04/26 10:59:40;;;;;;;6.15;2.53;;;;;;;;;;5057326;28;20040;-67
2022/04/26 11:02:10;;;;;;;7.63;2.75;;;;;;;;;;5042075;28;20542;-67
2022/04/26 11:04:36;;;;;;;7.95;2.63;;;;;;;;;;5043592;28;20430;-67
2022/04/26 11:07:11;;;;;;;7.40;2.50;;;;;;;;;;5065384;28;20552;-67
2022/04/26 11:09:37;;;;;;;6.35;2.67;;;;;;;;;;5064171;28;20684;-66
2022/04/26 11:12:03;;;;;;;7.82;2.15;;;;;;;;;;5042621;28;20120;-67
2022/04/26 11:14:29;;;;;;;8.90;2.90;;;;;;;;;;5066085;28;20098;-67
2022/04/26 11:16:57;;;;;;;7.55;2.70;;;;;;;;;;5041836;28;20123;-67
2022/04/26 11:19:29;;;;;;;8.27;2.85;;;;;;;;;;5044442;28;20106;-67
2022/04/26 11:21:55;;;;;;;6.53;2.47;;;;;;;;;;5044035;28;20056;-67
2022/04/26 11:29:52;;;;;;;6.13;2.30;;;;;;;;;;5040886;28;20099;-67
2022/04/26 11:32:28;;;;;;;5.97;2.55;;;;;;;;;;5056909;28;20123;-67
2022/04/26 11:34:55;;;;;;;7.20;2.35;;;;;;;;;;5061665;28;20048;-67
2022/04/26 11:37:21;;;;;;;6.85;2.40;;;;;;;;;;5061373;28;20132;-67
2022/04/26 11:39:47;;;;;;;7.40;2.30;;;;;;;;;;5063930;28;20086;-67
2022/04/26 11:42:14;;;;;;;6.90;2.63;;;;;;;;;;5063500;28;20056;-67
2022/04/26 11:44:57;;;;;;;6.43;2.13;;;;;;;;;;5041919;28;20408;-67
2022/04/26 11:47:37;;;;;;;8.65;2.50;;;;;;;;;;5043006;28;20052;-67
2022/04/26 11:50:14;;;;;;;6.43;2.95;;;;;;;;;;5045503;28;20542;-67
2022/04/26 11:52:43;;;;;;;4.50;2.28;;;;;;;;;;5064338;28;20488;-67
2022/04/26 11:55:19;;;;;;;6.10;2.28;;;;;;;;;;5044098;28;20383;-67
2022/04/26 11:57:46;;;;;;;8.07;2.70;;;;;;;;;;5045270;28;20037;-67
2022/04/26 12:00:12;;;;;;;5.82;1.90;;;;;;;;;;5042172;28;20040;-67
2022/04/26 12:02:39;;;;;;;6.15;1.80;;;;;;;;;;5058866;28;20040;-67
2022/04/26 12:05:07;;;;;;;6.30;2.53;;;;;;;;;;5040934;28;20055;-67
2022/04/26 12:07:34;;;;;;;9.13;2.42;;;;;;;;;;5063247;28;20044;-67
2022/04/26 12:10:00;;;;;;;6.88;2.53;;;;;;;;;;5045397;28;20484;-67
2022/04/26 12:12:27;;;;;;;5.57;2.03;;;;;;;;;;5062594;28;20553;-66
2022/04/26 12:14:54;;;;;;;7.65;2.30;;;;;;;;;;5026890;28;20567;-67
2022/04/26 12:17:29;;;;;;;8.75;2.58;;;;;;;;;;5059945;28;20051;-66
2022/04/26 12:19:55;;;;;;;4.88;1.90;;;;;;;;;;5056573;28;20119;-67
2022/04/26 12:22:26;;;;;;;6.93;2.65;;;;;;;;;;5057558;28;20051;-67
2022/04/26 12:24:52;;;;;;;9.10;2.58;;;;;;;;;;5047096;28;20106;-67
2022/04/26 12:27:22;;;;;;;8.82;2.78;;;;;;;;;;5044392;28;20051;-66
2022/04/26 12:29:50;;;;;;;7.45;2.53;;;;;;;;;;5048442;28;20051;-66
2022/04/26 12:32:17;;;;;;;6.82;2.53;;;;;;;;;;5049617;28;20094;-67
2022/04/26 12:34:48;;;;;;;9.38;3.00;;;;;;;;;;5049777;28;20059;-66
2022/04/26 12:37:21;;;;;;;5.97;2.25;;;;;;;;;;5046593;28;20454;-67
2022/04/26 12:39:49;;;;;;;7.63;2.20;;;;;;;;;;5064743;28;20484;-66
2022/04/26 12:42:17;;;;;;;6.72;2.30;;;;;;;;;;5063775;28;20045;-66
2022/04/26 12:44:51;;;;;;;6.97;2.50;;;;;;;;;;5046896;28;20053;-66
2022/04/26 12:52:49;;;;;;;7.55;2.40;;;;;;;;;;5061611;28;20492;-67
2022/04/26 12:55:25;;;;;;;5.82;2.42;;;;;;;;;;5065137;28;20147;-67
2022/04/26 12:57:53;;;;;;;6.32;2.17;;;;;;;;;;5060405;28;20092;-66
2022/04/26 13:00:20;;;;;;;5.95;2.45;;;;;;;;;;5045043;28;20072;-67
2022/04/26 13:02:47;;;;;;;5.53;2.08;;;;;;;;;;5046616;28;20091;-66
2022/04/26 13:05:13;;;;;;;9.30;2.15;;;;;;;;;;5045964;28;21662;-67
2022/04/26 13:07:40;;;;;;;6.30;2.17;;;;;;;;;;5065755;28;20067;-67
2022/04/26 13:10:06;;;;;;;8.10;2.65;;;;;;;;;;5045591;28;20045;-67
2022/04/26 13:12:32;;;;;;;5.53;2.15;;;;;;;;;;5045020;28;20044;-67
2022/04/26 13:15:00;;;;;;;9.18;2.40;;;;;;;;;;5061686;28;20559;-67
2022/04/26 13:17:26;;;;;;;7.35;3.17;;;;;;;;;;5065291;28;20127;-67
2022/04/26 13:19:52;;;;;;;6.95;2.70;;;;;;;;;;5067292;28;20044;-67
2022/04/26 13:22:20;;;;;;;9.68;3.70;;;;;;;;;;5066868;28;20033;-67
2022/04/26 13:24:46;;;;;;;6.15;2.72;;;;;;;;;;5046417;28;20048;-67
2022/04/26 13:27:12;;;;;;;9.45;3.72;;;;;;;;;;5066683;28;20036;-66
2022/04/26 13:29:38;;;;;;;8.85;3.38;;;;;;;;;;5066625;28;20168;-66
2022/04/26 13:32:05;;;;;;;5.35;2.45;;;;;;;;;;5035617;28;20055;-66
2022/04/26 13:34:32;;;;;;;8.43;3.03;;;;;;;;;;5052267;28;20392;-66
2022/04/26 13:36:58;;;;;;;8.90;3.00;;;;;;;;;;5050443;28;20043;-66
2022/04/26 13:39:25;;;;;;;6.78;2.53;;;;;;;;;;5069021;28;20245;-66
2022/04/26 13:41:51;;;;;;;7.00;2.55;;;;;;;;;;5069234;28;20052;-66
2022/04/26 13:44:19;;;;;;;7.68;2.45;;;;;;;;;;5069256;28;20492;-66
2022/04/26 13:46:46;;;;;;;6.15;2.42;;;;;;;;;;5062925;28;20040;-66
2022/04/26 13:49:12;;;;;;;7.22;2.53;;;;;;;;;;5068118;28;20368;-66
2022/04/26 13:51:38;;;;;;;8.90;3.03;;;;;;;;;;5065785;28;20060;-66
2022/04/26 13:54:05;;;;;;;8.60;2.92;;;;;;;;;;5050185;28;20044;-67
2022/04/26 13:56:31;;;;;;;6.53;2.30;;;;;;;;;;5061541;28;20500;-66
2022/04/26 13:58:57;;;;;;;6.97;2.65;;;;;;;;;;5061093;28;20045;-67
2022/04/26 14:01:23;;;;;;;7.45;2.63;;;;;;;;;;5042681;28;20399;-67
2022/04/26 14:03:50;;;;;;;6.63;2.60;;;;;;;;;;5061214;28;20760;-67
2022/04/26 14:06:21;;;;;;;7.15;2.58;;;;;;;;;;5062226;28;20056;-66
2022/04/26 14:08:49;;;;;;;8.05;2.83;;;;;;;;;;5064190;28;20043;-66
2022/04/26 14:11:17;;;;;;;8.88;3.28;;;;;;;;;;5064802;28;20114;-67
2022/04/26 14:21:58;;;;;;;8.95;2.55;;;;;;;;;;5063896;28;20075;-67
2022/04/26 14:24:24;;;;;;;11.30;3.33;;;;;;;;;;5046708;28;20749;-66
2022/04/26 14:26:51;;;;;;;7.57;2.50;;;;;;;;;;5045614;28;20052;-67
2022/04/26 14:29:17;;;;;;;7.35;2.53;;;;;;;;;;5044858;28;20041;-67
2022/04/26 14:31:43;;;;;;;6.40;2.83;;;;;;;;;;5063003;28;20055;-66
2022/04/26 14:34:11;;;;;;;8.32;2.60;;;;;;;;;;5044451;28;20048;-66
2022/04/26 14:36:37;;;;;;;5.40;2.47;;;;;;;;;;5062672;28;20052;-66
2022/04/26 14:39:04;;;;;;;7.10;2.47;;;;;;;;;;5064260;28;20045;-66
2022/04/26 14:41:30;;;;;;;6.20;2.17;;;;;;;;;;5062621;28;20369;-66
2022/04/26 14:43:56;;;;;;;6.68;2.70;;;;;;;;;;5062126;28;20451;-66
2022/04/26 14:46:22;;;;;;;7.18;2.53;;;;;;;;;;5038423;28;20099;-66
2022/04/26 14:48:48;;;;;;;9.13;2.45;;;;;;;;;;5043345;28;20052;-66
2022/04/26 14:51:14;;;;;;;7.72;2.88;;;;;;;;;;5066288;28;20078;-66
2022/04/26 14:53:41;;;;;;;6.22;2.33;;;;;;;;;;5063358;28;20438;-66
2022/04/26 14:56:09;;;;;;;6.22;2.67;;;;;;;;;;5042291;28;20047;-66
2022/04/26 14:58:36;;;;;;;6.75;2.22;;;;;;;;;;5062792;28;20033;-66
2022/04/26 15:01:02;;;;;;;5.80;2.58;;;;;;;;;;5064443;28;20068;-66
2022/04/26 15:03:30;;;;;;;5.30;2.33;;;;;;;;;;5064617;28;20082;-66
2022/04/26 15:05:58;;;;;;;7.03;2.40;;;;;;;;;;5061511;28;20036;-66
2022/04/26 15:11:09;;;;;;;5.20;1.98;;;;;;;;;;5058618;28;20044;-66
2022/04/26 15:16:38;;;;;;;5.60;1.92;;;;;;;;;;5058422;28;20055;-66
2022/04/26 15:19:06;;;;;;;8.10;2.40;;;;;;;;;;5063455;28;20154;-66
2022/04/26 15:21:33;;;;;;;5.47;2.45;;;;;;;;;;5061039;28;20036;-66
2022/04/26 15:24:00;;;;;;;9.43;2.60;;;;;;;;;;5042662;28;20041;-66
2022/04/26 15:26:26;;;;;;;7.60;2.92;;;;;;;;;;5064380;28;20056;-66
2022/04/26 15:28:52;;;;;;;8.18;2.70;;;;;;;;;;5061742;28;20041;-66
2022/04/26 15:31:19;;;;;;;8.45;2.80;;;;;;;;;;5040251;28;20556;-66
2022/04/26 15:33:46;;;;;;;6.60;2.85;;;;;;;;;;5062122;28;20078;-66
2022/04/26 15:36:13;;;;;;;7.97;2.40;;;;;;;;;;5064462;28;20056;-66
2022/04/26 15:38:39;;;;;;;7.95;2.35;;;;;;;;;;5037680;28;20107;-67
2022/04/26 15:41:06;;;;;;;7.28;2.78;;;;;;;;;;5046893;28;20037;-67
2022/04/26 15:43:32;;;;;;;4.72;1.92;;;;;;;;;;5047566;28;20441;-65
2022/04/26 15:45:59;;;;;;;4.53;2.10;;;;;;;;;;5047278;28;20032;-66
2022/04/26 15:48:25;;;;;;;5.45;2.00;;;;;;;;;;5045586;28;20134;-66
2022/04/26 15:50:51;;;;;;;7.90;2.70;;;;;;;;;;5042661;28;20561;-67
2022/04/26 15:53:18;;;;;;;8.75;2.30;;;;;;;;;;5047337;28;20471;-66
2022/04/26 15:55:44;;;;;;;5.97;2.20;;;;;;;;;;5046961;28;20120;-67
2022/04/26 15:58:10;;;;;;;7.25;2.05;;;;;;;;;;5047628;28;20369;-67
2022/04/26 16:00:37;;;;;;;5.55;1.77;;;;;;;;;;5047433;28;20655;-67
2022/04/26 16:03:04;;;;;;;6.97;2.03;;;;;;;;;;5050168;28;20445;-67
2022/04/26 16:05:31;;;;;;;8.23;2.80;;;;;;;;;;5049496;28;20067;-66
2022/04/26 16:07:57;;;;;;;7.53;2.05;;;;;;;;;;5051107;28;20112;-66
2022/04/26 16:21:25;;;;;;;6.20;2.17;;;;;;;;;;5045093;28;20045;-67
2022/04/26 16:23:53;;;;;;;4.97;2.15;;;;;;;;;;5051415;28;20396;-67
2022/04/26 16:26:22;;;;;;;7.35;2.22;;;;;;;;;;5049397;28;20444;-66
2022/04/26 16:28:48;;;;;;;7.97;2.50;;;;;;;;;;5045900;28;20124;-67
2022/04/26 16:31:15;;;;;;;8.30;2.85;;;;;;;;;;5046622;28;20109;-69
2022/04/26 16:33:42;;;;;;;7.07;2.22;;;;;;;;;;5046238;28;20126;-66
2022/04/26 16:36:11;;;;;;;6.72;2.20;;;;;;;;;;5044717;28;20119;-66
2022/04/26 16:38:37;;;;;;;7.47;2.53;;;;;;;;;;5044761;28;20072;-66
2022/04/26 16:41:04;;;;;;;8.40;2.15;;;;;;;;;;5048851;28;20120;-66
2022/04/26 16:43:31;;;;;;;5.53;2.05;;;;;;;;;;5048368;28;20040;-66
2022/04/26 16:45:57;;;;;;;7.60;2.10;;;;;;;;;;5048358;28;20045;-66
2022/04/26 16:48:23;;;;;;;7.20;1.90;;;;;;;;;;5049714;28;20401;-66
2022/04/26 16:50:50;;;;;;;8.30;2.58;;;;;;;;;;5048340;28;20036;-66
2022/04/26 16:53:16;;;;;;;6.53;2.72;;;;;;;;;;5050165;28;20045;-66
2022/04/26 16:55:42;;;;;;;7.07;2.50;;;;;;;;;;5041571;28;20047;-66
2022/04/26 16:58:08;;;;;;;7.30;2.65;;;;;;;;;;5043401;28;20038;-66
2022/04/26 17:00:35;;;;;;;7.95;2.47;;;;;;;;;;5044392;28;20048;-65
2022/04/26 17:03:01;;;;;;;9.52;2.40;;;;;;;;;;5049846;28;20036;-65
2022/04/26 17:05:27;;;;;;;7.72;2.50;;;;;;;;;;5047924;28;20107;-66
2022/04/26 17:07:56;;;;;;;6.57;2.08;;;;;;;;;;5048932;28;20052;-66
2022/04/26 17:10:22;;;;;;;10.57;2.88;;;;;;;;;;5042665;28;20061;-66
2022/04/26 17:12:49;;;;;;;11.57;3.70;;;;;;;;;;5025591;28;20040;-69
2022/04/26 17:15:16;;;;;;;6.85;2.78;;;;;;;;;;5039303;28;20132;-66
2022/04/26 17:17:44;;;;;;;9.02;2.70;;;;;;;;;;5038435;28;20077;-65
2022/04/26 17:20:12;;;;;;;10.75;3.13;;;;;;;;;;5043479;28;20103;-66
2022/04/26 17:22:39;;;;;;;7.15;2.40;;;;;;;;;;5042002;28;20107;-66
2022/04/26 17:25:15;;;;;;;10.02;2.35;;;;;;;;;;5040909;28;20133;-66
2022/04/26 17:27:42;;;;;;;10.65;2.88;;;;;;;;;;5040641;28;20681;-66
2022/04/26 17:30:09;;;;;;;11.50;2.85;;;;;;;;;;5040677;28;20048;-66
2022/04/26 17:32:35;;;;;;;9.13;2.58;;;;;;;;;;5041439;28;20041;-66
2022/04/26 17:35:01;;;;;;;9.27;2.20;;;;;;;;;;5045036;28;20170;-66
2022/04/26 17:37:28;;;;;;;13.52;2.60;;;;;;;;;;5045917;28;20526;-66
2022/04/26 17:39:54;;;;;;;6.95;2.20;;;;;;;;;;5062179;28;20052;-66
2022/04/26 17:42:24;;;;;;;10.85;2.10;;;;;;;;;;5061125;28;20037;-66
2022/04/26 17:44:50;;;;;;;6.68;1.92;;;;;;;;;;5061629;28;20052;-66
2022/04/26 17:47:16;;;;;;;8.25;2.08;;;;;;;;;;5063889;28;20048;-66
2022/04/26 17:49:43;;;;;;;7.75;1.85;;;;;;;;;;5042413;28;20155;-66
2022/04/26 17:52:09;;;;;;;7.80;2.30;;;;;;;;;;5064656;28;20056;-71
2022/04/26 17:57:20;;;;;;;9.68;2.50;;;;;;;;;;5061932;28;20147;-66
2022/04/26 17:59:47;;;;;;;9.15;2.00;;;;;;;;;;5061825;28;20112;-66
2022/04/26 18:02:13;;;;;;;10.50;1.70;;;;;;;;;;5063419;28;20135;-66
2022/04/26 18:04:40;;;;;;;8.73;2.60;;;;;;;;;;5062016;28;20064;-66
2022/04/26 18:07:07;;;;;;;8.80;2.92;;;;;;;;;;5062012;28;20119;-66
2022/04/26 18:09:33;;;;;;;10.13;2.42;;;;;;;;;;5060263;28;20040;-66
2022/04/26 18:12:00;;;;;;;7.75;2.28;;;;;;;;;;5042989;28;20078;-66
2022/04/26 18:14:27;;;;;;;8.65;2.78;;;;;;;;;;5062704;28;20036;-66
2022/04/26 18:16:53;;;;;;;9.18;2.30;;;;;;;;;;5062961;28;20082;-66
2022/04/26 18:19:19;;;;;;;12.75;2.95;;;;;;;;;;5063639;28;20044;-66
2022/04/26 18:21:45;;;;;;;8.77;2.40;;;;;;;;;;5060316;28;21278;-66
2022/04/26 18:24:11;;;;;;;11.25;2.53;;;;;;;;;;5061115;28;20044;-66
2022/04/26 18:26:40;;;;;;;8.45;2.30;;;;;;;;;;5059580;28;20404;-66
2022/04/26 18:29:08;;;;;;;6.68;2.03;;;;;;;;;;5059916;28;20120;-66
2022/04/26 18:31:36;;;;;;;6.43;2.42;;;;;;;;;;5063152;28;20504;-66
2022/04/26 18:34:03;;;;;;;5.45;2.28;;;;;;;;;;5043186;28;20098;-66
2022/04/26 18:36:30;;;;;;;7.68;2.40;;;;;;;;;;5042066;28;20147;-66
2022/04/26 18:38:57;;;;;;;7.80;2.20;;;;;;;;;;5041421;28;20053;-66
2022/04/26 18:41:25;;;;;;;8.88;2.17;;;;;;;;;;5042408;28;20044;-66
2022/04/26 18:43:53;;;;;;;9.52;2.47;;;;;;;;;;5044426;28;20056;-66
2022/04/26 18:46:19;;;;;;;8.50;2.70;;;;;;;;;;5042398;28;20059;-66
2022/04/26 18:48:46;;;;;;;5.40;2.08;;;;;;;;;;5043090;28;20073;-66
2022/04/26 18:51:12;;;;;;;11.88;2.72;;;;;;;;;;5045813;28;20080;-66
2022/04/26 18:53:39;;;;;;;13.10;2.63;;;;;;;;;;5045503;28;20037;-67
2022/04/26 18:56:06;;;;;;;10.23;2.63;;;;;;;;;;5045415;28;20144;-66
2022/04/26 18:58:32;;;;;;;5.55;2.38;;;;;;;;;;5047227;28;20361;-66
2022/04/26 19:00:59;;;;;;;11.90;3.05;;;;;;;;;;5045090;28;20045;-66
2022/04/26 19:03:26;;;;;;;8.70;2.40;;;;;;;;;;5045725;28;20103;-67
2022/04/26 19:05:53;;;;;;;9.75;2.42;;;;;;;;;;5046529;28;20120;-66
2022/04/26 19:08:20;;;;;;;7.63;2.67;;;;;;;;;;5047810;28;20569;-66